Time;durP1;ratioP1;P1;durP2;ratioP2;P2;SDS_P1;SDS_P2;PMS_P1;PMS_P2;Temp;Humidity;BMP_temperature;BMP_pressure;BME280_temperature;BME280_humidity;BME280_pressure;Samples;Min_cycle;Max_cycle;Signal;HPM_P1;HPM_P2
2021/07/24 00:02:17;;;;;;;;;;;16.40;99.90;;;;;;5076348;28;20245;-61
2021/07/24 00:04:43;;;;;;;;;;;16.40;99.90;;;;;;5075805;28;19916;-60
2021/07/24 00:07:09;;;;;;;;;;;16.40;99.90;;;;;;5076101;28;19924;-61
2021/07/24 00:09:35;;;;;;;;;;;16.30;99.90;;;;;;5076562;28;19931;-60
2021/07/24 00:12:01;;;;;;;;;;;16.30;99.90;;;;;;5075110;28;19919;-61
2021/07/24 00:14:27;;;;;;;;;;;16.30;99.90;;;;;;5075681;28;19915;-61
2021/07/24 00:16:52;;;;;;;;;;;16.30;99.90;;;;;;5075579;28;19908;-61
2021/07/24 00:19:18;;;;;;;;;;;16.20;99.90;;;;;;5075876;28;20273;-61
2021/07/24 00:21:44;;;;;;;;;;;16.20;99.90;;;;;;5075503;28;19908;-61
2021/07/24 00:24:10;;;;;;;;;;;16.20;99.90;;;;;;5075400;28;19909;-60
2021/07/24 00:26:36;;;;;;;;;;;16.20;99.90;;;;;;5076178;28;19909;-61
2021/07/24 00:29:05;;;;;;;;;;;16.10;99.90;;;;;;5076125;28;19915;-61
2021/07/24 00:31:32;;;;;;;;;;;16.10;99.90;;;;;;5075245;28;19908;-60
2021/07/24 00:33:58;;;;;;;;;;;16.10;99.90;;;;;;5076078;28;20253;-60
2021/07/24 00:36:24;;;;;;;;;;;16.10;99.90;;;;;;5075101;28;19912;-60
2021/07/24 00:38:50;;;;;;;;;;;16.10;99.90;;;;;;5075262;28;19912;-62
2021/07/24 00:41:25;;;;;;;;;;;16.00;99.90;;;;;;5075062;28;19921;-61
2021/07/24 00:43:51;;;;;;;;;;;16.00;99.90;;;;;;5075585;28;19912;-61
2021/07/24 00:46:17;;;;;;;;;;;16.00;99.90;;;;;;5074617;28;19905;-61
2021/07/24 00:48:43;;;;;;;;;;;16.00;99.90;;;;;;5073548;28;20289;-60
2021/07/24 00:51:09;;;;;;;;;;;16.00;99.90;;;;;;5073738;28;19905;-61
2021/07/24 00:53:35;;;;;;;;;;;15.90;99.90;;;;;;5074818;28;19916;-60
2021/07/24 00:56:01;;;;;;;;;;;15.90;99.90;;;;;;5074439;28;19927;-61
2021/07/24 00:58:32;;;;;;;;;;;15.90;99.90;;;;;;5074797;28;19905;-61
2021/07/24 01:00:58;;;;;;;;;;;15.90;99.90;;;;;;5075271;28;19911;-61
2021/07/24 01:03:24;;;;;;;;;;;15.90;99.90;;;;;;5073503;28;19912;-61
2021/07/24 01:05:51;;;;;;;;;;;15.90;99.90;;;;;;5074560;28;19939;-61
2021/07/24 01:08:17;;;;;;;;;;;15.90;99.90;;;;;;5073488;28;19912;-61
2021/07/24 01:10:43;;;;;;;;;;;15.90;99.90;;;;;;5074624;28;19908;-61
2021/07/24 01:13:09;;;;;;;;;;;15.80;99.90;;;;;;5073986;28;19912;-61
2021/07/24 01:15:35;;;;;;;;;;;15.80;99.90;;;;;;5074425;28;19904;-61
2021/07/24 01:18:01;;;;;;;;;;;15.90;99.90;;;;;;5074824;28;19954;-61
2021/07/24 01:20:27;;;;;;;;;;;15.90;99.90;;;;;;5074677;28;19908;-61
2021/07/24 01:22:53;;;;;;;;;;;15.90;99.90;;;;;;5073918;28;20329;-61
2021/07/24 01:25:19;;;;;;;;;;;15.90;99.90;;;;;;5074342;28;19911;-60
2021/07/24 01:27:45;;;;;;;;;;;15.90;99.90;;;;;;5074733;28;19908;-60
2021/07/24 01:30:11;;;;;;;;;;;15.90;99.90;;;;;;5074590;28;20377;-60
2021/07/24 01:32:37;;;;;;;;;;;15.90;99.90;;;;;;5074011;28;19912;-60
2021/07/24 01:35:03;;;;;;;;;;;15.90;99.90;;;;;;5074595;28;19908;-60
2021/07/24 01:37:29;;;;;;;;;;;15.90;99.90;;;;;;5074533;28;19912;-60
2021/07/24 01:39:55;;;;;;;;;;;15.90;99.90;;;;;;5072580;28;20354;-61
2021/07/24 01:42:21;;;;;;;;;;;15.90;99.90;;;;;;5074029;28;19927;-61
2021/07/24 01:44:47;;;;;;;;;;;15.90;99.90;;;;;;5074379;28;19916;-60
2021/07/24 01:47:13;;;;;;;;;;;15.90;99.90;;;;;;5074648;28;19935;-61
2021/07/24 01:55:08;;;;;;;;;;;15.80;99.90;;;;;;5080570;28;19912;-61
2021/07/24 01:57:35;;;;;;;;;;;15.80;99.90;;;;;;5072967;28;19904;-61
2021/07/24 02:00:07;;;;;;;;;;;15.70;99.90;;;;;;5072984;28;20257;-61
2021/07/24 02:02:33;;;;;;;;;;;15.70;99.90;;;;;;5074235;28;19904;-61
2021/07/24 02:04:58;;;;;;;;;;;15.60;99.90;;;;;;5072423;28;19939;-61
2021/07/24 02:07:24;;;;;;;;;;;15.60;99.90;;;;;;5073811;28;19919;-61
2021/07/24 02:09:50;;;;;;;;;;;15.60;99.90;;;;;;5074226;28;19927;-61
2021/07/24 02:12:16;;;;;;;;;;;15.50;99.90;;;;;;5072412;28;19921;-60
2021/07/24 02:14:42;;;;;;;;;;;15.50;99.90;;;;;;5073461;28;20369;-60
2021/07/24 02:17:08;;;;;;;;;;;15.40;99.90;;;;;;5073739;28;20267;-60
2021/07/24 02:19:34;;;;;;;;;;;15.50;99.90;;;;;;5073268;28;20094;-61
2021/07/24 02:22:00;;;;;;;;;;;15.40;99.90;;;;;;5072651;28;19911;-61
2021/07/24 02:24:26;;;;;;;;;;;15.40;99.90;;;;;;5073286;28;19915;-61
2021/07/24 02:26:52;;;;;;;;;;;15.40;99.90;;;;;;5073868;28;19908;-61
2021/07/24 02:29:18;;;;;;;;;;;15.30;99.90;;;;;;5073172;28;20277;-60
2021/07/24 02:31:44;;;;;;;;;;;15.30;99.90;;;;;;5073586;28;19908;-60
2021/07/24 02:34:10;;;;;;;;;;;15.30;99.90;;;;;;5073262;28;19913;-61
2021/07/24 02:36:36;;;;;;;;;;;15.20;99.90;;;;;;5073738;28;19912;-60
2021/07/24 02:39:01;;;;;;;;;;;15.20;99.90;;;;;;5073176;28;20357;-60
2021/07/24 02:41:27;;;;;;;;;;;15.20;99.90;;;;;;5073068;28;19920;-60
2021/07/24 02:43:53;;;;;;;;;;;15.20;99.90;;;;;;5073106;28;19915;-60
2021/07/24 02:46:19;;;;;;;;;;;15.20;99.90;;;;;;5073219;28;19919;-60
2021/07/24 02:48:46;;;;;;;;;;;15.10;99.90;;;;;;5073069;28;19908;-61
2021/07/24 02:51:13;;;;;;;;;;;15.10;99.90;;;;;;5073115;28;19909;-60
2021/07/24 02:53:38;;;;;;;;;;;15.10;99.90;;;;;;5071798;28;20333;-61
2021/07/24 02:56:04;;;;;;;;;;;15.10;99.90;;;;;;5073519;28;19909;-60
2021/07/24 02:58:30;;;;;;;;;;;15.00;99.90;;;;;;5073445;28;19909;-60
2021/07/24 03:00:56;;;;;;;;;;;15.00;99.90;;;;;;5072921;28;19911;-61
2021/07/24 03:03:22;;;;;;;;;;;15.00;99.90;;;;;;5073660;28;20253;-60
2021/07/24 03:05:48;;;;;;;;;;;15.00;99.90;;;;;;5073423;28;19922;-60
2021/07/24 03:08:14;;;;;;;;;;;15.00;99.90;;;;;;5073627;28;19916;-60
2021/07/24 03:10:40;;;;;;;;;;;15.00;99.90;;;;;;5073691;28;19909;-60
2021/07/24 03:13:06;;;;;;;;;;;15.00;99.90;;;;;;5073475;28;20030;-61
2021/07/24 03:15:32;;;;;;;;;;;15.00;99.90;;;;;;5072947;28;19908;-60
2021/07/24 03:17:58;;;;;;;;;;;14.90;99.90;;;;;;5073028;28;19908;-60
2021/07/24 03:20:23;;;;;;;;;;;14.90;99.90;;;;;;5073241;28;20273;-61
2021/07/24 03:22:49;;;;;;;;;;;14.90;99.90;;;;;;5072805;28;19909;-60
2021/07/24 03:25:15;;;;;;;;;;;14.90;99.90;;;;;;5072801;28;19908;-60
2021/07/24 03:27:41;;;;;;;;;;;14.90;99.90;;;;;;5072907;28;19908;-60
2021/07/24 03:30:08;;;;;;;;;;;14.90;99.90;;;;;;5072618;28;20249;-61
2021/07/24 03:32:34;;;;;;;;;;;14.90;99.90;;;;;;5072780;28;19939;-61
2021/07/24 03:35:00;;;;;;;;;;;14.90;99.90;;;;;;5073193;28;20285;-60
2021/07/24 03:37:26;;;;;;;;;;;14.90;99.90;;;;;;5073258;28;19913;-60
2021/07/24 03:39:51;;;;;;;;;;;14.90;99.90;;;;;;5071732;28;19908;-61
2021/07/24 03:42:17;;;;;;;;;;;14.90;99.90;;;;;;5073144;28;19921;-60
2021/07/24 03:44:43;;;;;;;;;;;14.90;99.90;;;;;;5073334;28;19908;-61
2021/07/24 03:47:09;;;;;;;;;;;15.00;99.90;;;;;;5073124;28;20284;-60
2021/07/24 03:49:35;;;;;;;;;;;15.00;99.90;;;;;;5076639;28;19916;-60
2021/07/24 03:52:01;;;;;;;;;;;15.00;99.90;;;;;;5076106;28;19915;-60
2021/07/24 03:54:27;;;;;;;;;;;15.00;99.90;;;;;;5076528;28;19938;-62
2021/07/24 03:56:53;;;;;;;;;;;15.10;99.90;;;;;;5076046;28;19915;-62
2021/07/24 03:59:19;;;;;;;;;;;15.10;99.90;;;;;;5075951;28;19909;-61
2021/07/24 04:01:46;;;;;;;;;;;15.10;99.90;;;;;;5075971;28;19932;-61
2021/07/24 04:04:12;;;;;;;;;;;15.10;99.90;;;;;;5076389;28;19912;-61
2021/07/24 04:06:38;;;;;;;;;;;15.20;99.90;;;;;;5076294;28;20350;-61
2021/07/24 04:09:05;;;;;;;;;;;15.20;99.90;;;;;;5074560;28;19912;-61
2021/07/24 04:11:31;;;;;;;;;;;15.30;99.90;;;;;;5075757;28;20090;-60
2021/07/24 04:13:57;;;;;;;;;;;15.30;99.90;;;;;;5075665;28;19912;-61
2021/07/24 04:16:23;;;;;;;;;;;15.40;99.90;;;;;;5076195;28;19904;-61
2021/07/24 04:18:48;;;;;;;;;;;15.40;99.90;;;;;;5075806;28;20276;-60
2021/07/24 04:21:14;;;;;;;;;;;15.50;99.90;;;;;;5076336;28;19912;-61
2021/07/24 04:23:40;;;;;;;;;;;15.50;99.90;;;;;;5075469;28;19912;-61
2021/07/24 04:26:06;;;;;;;;;;;15.60;99.90;;;;;;5075468;28;19956;-61
2021/07/24 04:28:32;;;;;;;;;;;15.60;99.90;;;;;;5075435;28;19970;-61
2021/07/24 04:30:58;;;;;;;;;;;15.60;99.90;;;;;;5076099;28;19909;-61
2021/07/24 04:33:24;;;;;;;;;;;15.70;99.90;;;;;;5075174;28;19916;-61
2021/07/24 04:35:50;;;;;;;;;;;15.70;99.90;;;;;;5075320;28;19908;-61
2021/07/24 04:38:16;;;;;;;;;;;15.70;99.90;;;;;;5075361;28;19962;-61
2021/07/24 04:40:43;;;;;;;;;;;15.80;99.90;;;;;;5075474;28;19915;-60
2021/07/24 04:43:11;;;;;;;;;;;15.90;99.90;;;;;;5074516;28;21348;-60
2021/07/24 04:45:43;;;;;;;;;;;15.90;99.90;;;;;;5075103;28;20352;-60
2021/07/24 04:48:09;;;;;;;;;;;16.00;99.90;;;;;;5075521;28;19912;-60
2021/07/24 04:50:38;;;;;;;;;;;16.00;99.90;;;;;;5075158;28;19908;-60
2021/07/24 04:53:04;;;;;;;;;;;16.10;99.90;;;;;;5073689;28;19928;-60
2021/07/24 04:55:30;;;;;;;;;;;16.20;99.90;;;;;;5075118;28;20293;-60
2021/07/24 04:57:56;;;;;;;;;;;16.20;99.90;;;;;;5074761;28;19909;-60
2021/07/24 05:00:22;;;;;;;;;;;16.30;99.90;;;;;;5074989;28;19912;-61
2021/07/24 05:02:48;;;;;;;;;;;16.30;99.90;;;;;;5075312;28;19909;-61
2021/07/24 05:05:14;;;;;;;;;;;16.40;99.90;;;;;;5075275;28;19912;-61
2021/07/24 05:07:40;;;;;;;;;;;16.50;99.90;;;;;;5075147;28;19908;-61
2021/07/24 05:10:08;;;;;;;;;;;16.50;99.90;;;;;;5075399;28;19917;-60
2021/07/24 05:12:35;;;;;;;;;;;16.60;99.90;;;;;;5074772;28;19917;-61
2021/07/24 05:15:01;;;;;;;;;;;16.60;99.90;;;;;;5075050;28;19924;-61
2021/07/24 05:17:27;;;;;;;;;;;16.70;99.90;;;;;;5074753;28;19909;-62
2021/07/24 05:19:52;;;;;;;;;;;16.70;99.90;;;;;;5075180;28;19928;-61
2021/07/24 05:22:18;;;;;;;;;;;16.80;99.90;;;;;;5074835;28;19935;-60
2021/07/24 05:24:45;;;;;;;;;;;16.80;99.90;;;;;;5075119;28;20383;-60
2021/07/24 05:27:12;;;;;;;;;;;16.90;99.90;;;;;;5074252;28;19920;-61
2021/07/24 05:29:37;;;;;;;;;;;16.90;99.90;;;;;;5074760;28;19909;-62
2021/07/24 05:32:04;;;;;;;;;;;16.90;99.90;;;;;;5074561;28;19966;-62
2021/07/24 05:34:29;;;;;;;;;;;17.00;99.90;;;;;;5074168;28;19916;-61
2021/07/24 05:36:55;;;;;;;;;;;17.10;99.90;;;;;;5074262;28;19912;-60
2021/07/24 05:39:21;;;;;;;;;;;17.10;99.90;;;;;;5074776;28;19916;-60
2021/07/24 05:41:47;;;;;;;;;;;17.20;99.90;;;;;;5074340;28;19925;-60
2021/07/24 05:44:17;;;;;;;;;;;17.20;99.90;;;;;;5073955;28;19921;-61
2021/07/24 05:46:43;;;;;;;;;;;17.30;99.90;;;;;;5074391;28;19912;-61
2021/07/24 05:49:09;;;;;;;;;;;17.30;99.90;;;;;;5073817;28;20392;-61
2021/07/24 05:51:35;;;;;;;;;;;17.40;99.90;;;;;;5073817;28;19913;-61
2021/07/24 05:54:01;;;;;;;;;;;17.50;99.90;;;;;;5073791;28;19921;-61
2021/07/24 05:56:27;;;;;;;;;;;17.70;99.90;;;;;;5074539;28;19912;-61
2021/07/24 05:58:53;;;;;;;;;;;17.70;99.90;;;;;;5074192;28;20330;-61
2021/07/24 06:01:18;;;;;;;;;;;17.80;99.90;;;;;;5073674;28;19912;-61
2021/07/24 06:03:44;;;;;;;;;;;17.90;99.90;;;;;;5074447;28;19920;-59
2021/07/24 06:06:10;;;;;;;;;;;18.00;99.90;;;;;;5073817;28;20285;-60
2021/07/24 06:08:36;;;;;;;;;;;18.00;99.90;;;;;;5072438;28;19924;-60
2021/07/24 06:11:02;;;;;;;;;;;18.20;99.90;;;;;;5072003;28;19924;-60
2021/07/24 06:13:28;;;;;;;;;;;18.30;99.90;;;;;;5072988;28;19924;-60
2021/07/24 06:15:54;;;;;;;;;;;18.40;99.90;;;;;;5073445;28;19912;-60
2021/07/24 06:18:23;;;;;;;;;;;18.50;99.90;;;;;;5073901;28;19913;-60
2021/07/24 06:20:49;;;;;;;;;;;18.50;99.90;;;;;;5073985;28;19915;-60
2021/07/24 06:23:15;;;;;;;;;;;18.60;99.90;;;;;;5074307;28;19908;-60
2021/07/24 06:25:42;;;;;;;;;;;18.70;99.90;;;;;;5073916;28;19915;-60
2021/07/24 06:28:08;;;;;;;;;;;18.80;99.90;;;;;;5072289;28;19909;-60
2021/07/24 06:30:34;;;;;;;;;;;19.00;99.90;;;;;;5073354;28;20426;-60
2021/07/24 06:33:00;;;;;;;;;;;19.00;99.90;;;;;;5073325;28;19924;-60
2021/07/24 06:35:25;;;;;;;;;;;19.10;99.90;;;;;;5074006;28;19913;-60
2021/07/24 06:37:52;;;;;;;;;;;19.20;99.90;;;;;;5073664;28;19912;-60
2021/07/24 06:40:18;;;;;;;;;;;19.20;99.90;;;;;;5073083;28;19912;-61
2021/07/24 06:42:44;;;;;;;;;;;19.30;99.90;;;;;;5073769;28;19924;-61
2021/07/24 06:45:10;;;;;;;;;;;19.40;99.60;;;;;;5073898;28;19909;-61
2021/07/24 06:47:36;;;;;;;;;;;19.60;99.10;;;;;;5073862;28;19909;-61
2021/07/24 06:50:02;;;;;;;;;;;19.70;98.60;;;;;;5073329;28;19916;-61
2021/07/24 06:52:28;;;;;;;;;;;19.80;98.20;;;;;;5073563;28;19913;-61
2021/07/24 06:54:54;;;;;;;;;;;19.90;97.60;;;;;;5073706;28;20270;-61
2021/07/24 06:57:20;;;;;;;;;;;20.00;96.70;;;;;;5073605;28;19912;-61
2021/07/24 06:59:46;;;;;;;;;;;20.10;96.80;;;;;;5073204;28;19912;-61
2021/07/24 07:02:12;;;;;;;;;;;20.10;95.70;;;;;;5072944;28;19916;-61
2021/07/24 07:04:38;;;;;;;;;;;20.10;94.70;;;;;;5073122;28;20362;-60
2021/07/24 07:07:07;;;;;;;;;;;20.20;94.20;;;;;;5073178;28;19924;-61
2021/07/24 07:09:33;;;;;;;;;;;20.30;94.10;;;;;;5073715;28;19913;-61
2021/07/24 07:11:59;;;;;;;;;;;20.70;94.00;;;;;;5072851;28;20277;-61
2021/07/24 07:14:25;;;;;;;;;;;20.90;93.70;;;;;;5072888;28;19916;-61
2021/07/24 07:16:51;;;;;;;;;;;20.90;92.20;;;;;;5073385;28;19908;-61
2021/07/24 07:19:17;;;;;;;;;;;20.90;92.10;;;;;;5073012;28;20261;-61
2021/07/24 07:21:43;;;;;;;;;;;21.00;91.10;;;;;;5073138;28;19909;-61
2021/07/24 07:24:09;;;;;;;;;;;21.30;90.90;;;;;;5075258;28;19920;-61
2021/07/24 07:26:35;;;;;;;;;;;21.60;90.70;;;;;;5076870;28;20360;-61
2021/07/24 07:29:04;;;;;;;;;;;21.70;89.60;;;;;;5076539;28;19920;-61
2021/07/24 07:31:30;;;;;;;;;;;21.80;88.30;;;;;;5077047;28;19913;-61
2021/07/24 07:33:56;;;;;;;;;;;22.10;86.90;;;;;;5076486;28;19917;-61
2021/07/24 07:36:22;;;;;;;;;;;22.30;86.10;;;;;;5076698;28;20004;-61
2021/07/24 07:38:48;;;;;;;;;;;22.20;84.30;;;;;;5076667;28;19912;-61
2021/07/24 07:41:14;;;;;;;;;;;22.20;83.80;;;;;;5076628;28;19929;-61
2021/07/24 07:43:40;;;;;;;;;;;22.20;84.70;;;;;;5076304;28;19908;-61
2021/07/24 07:46:06;;;;;;;;;;;22.30;84.20;;;;;;5076573;28;19912;-61
2021/07/24 07:48:35;;;;;;;;;;;22.70;84.70;;;;;;5076722;28;20093;-61
2021/07/24 07:51:01;;;;;;;;;;;23.00;83.30;;;;;;5076962;28;19913;-60
2021/07/24 07:53:27;;;;;;;;;;;23.40;80.90;;;;;;5076851;28;19917;-60
2021/07/24 07:55:53;;;;;;;;;;;23.70;79.00;;;;;;5075008;28;20269;-60
2021/07/24 07:58:19;;;;;;;;;;;24.00;76.00;;;;;;5076392;28;19913;-60
2021/07/24 08:00:45;;;;;;;;;;;24.10;72.40;;;;;;5075995;28;19919;-61
2021/07/24 08:03:11;;;;;;;;;;;24.50;73.50;;;;;;5076283;28;19919;-61
2021/07/24 08:05:37;;;;;;;;;;;24.60;70.70;;;;;;5076511;28;20364;-61
2021/07/24 08:08:03;;;;;;;;;;;24.70;67.90;;;;;;5076109;28;19935;-60
2021/07/24 08:10:29;;;;;;;;;;;24.90;67.90;;;;;;5076218;28;19912;-61
2021/07/24 08:12:54;;;;;;;;;;;25.10;65.00;;;;;;5075760;28;19917;-61
2021/07/24 08:15:21;;;;;;;;;;;25.20;62.30;;;;;;5076353;28;19912;-61
2021/07/24 08:17:47;;;;;;;;;;;25.30;61.10;;;;;;5075998;28;19908;-61
2021/07/24 08:20:13;;;;;;;;;;;25.30;60.50;;;;;;5075730;28;19938;-61
2021/07/24 08:22:39;;;;;;;;;;;25.40;59.80;;;;;;5076507;28;20341;-61
2021/07/24 08:25:05;;;;;;;;;;;25.70;60.10;;;;;;5076096;28;19913;-62
2021/07/24 08:27:31;;;;;;;;;;;25.90;58.40;;;;;;5075650;28;19915;-61
2021/07/24 08:29:57;;;;;;;;;;;26.20;58.00;;;;;;5076075;28;19913;-60
2021/07/24 08:32:23;;;;;;;;;;;26.50;56.80;;;;;;5074400;28;19924;-60
2021/07/24 08:34:50;;;;;;;;;;;26.70;55.80;;;;;;5075703;28;19927;-60
2021/07/24 08:37:16;;;;;;;;;;;27.20;54.50;;;;;;5076055;28;19935;-61
2021/07/24 08:39:42;;;;;;;;;;;27.80;54.60;;;;;;5075966;28;19915;-62
2021/07/24 08:42:08;;;;;;;;;;;28.20;52.80;;;;;;5075729;28;19924;-61
2021/07/24 08:44:37;;;;;;;;;;;28.40;51.90;;;;;;5075348;28;20361;-61
2021/07/24 08:47:03;;;;;;;;;;;28.80;51.20;;;;;;5076050;28;19916;-61
2021/07/24 08:49:29;;;;;;;;;;;29.00;51.90;;;;;;5073842;28;19909;-62
2021/07/24 08:51:55;;;;;;;;;;;29.20;50.20;;;;;;5075586;28;19916;-61
2021/07/24 08:54:21;;;;;;;;;;;29.00;49.60;;;;;;5074663;28;19923;-61
2021/07/24 08:56:47;;;;;;;;;;;29.60;49.80;;;;;;5075827;28;19923;-62
2021/07/24 08:59:14;;;;;;;;;;;29.70;49.10;;;;;;5074632;28;19919;-61
2021/07/24 09:01:40;;;;;;;;;;;30.10;48.10;;;;;;5073741;28;19909;-61
2021/07/24 09:04:06;;;;;;;;;;;30.10;45.60;;;;;;5075429;28;19920;-61
2021/07/24 09:06:32;;;;;;;;;;;30.10;46.90;;;;;;5073587;28;19912;-61
2021/07/24 09:08:58;;;;;;;;;;;30.10;46.80;;;;;;5074742;28;19939;-61
2021/07/24 09:11:24;;;;;;;;;;;30.00;46.80;;;;;;5074697;28;19909;-62
2021/07/24 09:13:50;;;;;;;;;;;29.50;47.70;;;;;;5074814;28;19916;-62
2021/07/24 09:16:16;;;;;;;;;;;30.20;46.90;;;;;;5073481;28;19912;-62
2021/07/24 09:18:42;;;;;;;;;;;30.00;46.70;;;;;;5074826;28;19913;-62
2021/07/24 09:21:07;;;;;;;;;;;30.10;45.90;;;;;;5074487;28;19912;-61
2021/07/24 09:23:36;;;;;;;;;;;31.20;45.40;;;;;;5073634;28;20281;-62
2021/07/24 09:26:08;;;;;;;;;;;31.40;44.40;;;;;;5074375;28;19913;-62
2021/07/24 09:28:33;;;;;;;;;;;31.50;41.40;;;;;;5074359;28;19919;-61
2021/07/24 09:31:23;;;;;;;;;;;32.10;40.70;;;;;;5074312;28;19913;-60
2021/07/24 09:33:50;;;;;;;;;;;32.50;41.30;;;;;;5068559;28;19917;-61
2021/07/24 09:36:32;;;;;;;;;;;32.50;39.90;;;;;;5073721;28;19912;-61
2021/07/24 09:39:10;;;;;;;;;;;32.90;40.50;;;;;;5074145;28;19919;-61
2021/07/24 09:41:36;;;;;;;;;;;33.00;39.60;;;;;;5074036;28;19931;-61
2021/07/24 09:44:02;;;;;;;;;;;32.90;38.30;;;;;;5074646;28;20357;-62
2021/07/24 09:46:28;;;;;;;;;;;32.40;38.70;;;;;;5072203;28;19913;-61
2021/07/24 09:48:54;;;;;;;;;;;32.10;38.70;;;;;;5073989;28;20273;-61
2021/07/24 09:51:36;;;;;;;;;;;32.20;39.60;;;;;;5074407;28;19952;-62
2021/07/24 09:54:04;;;;;;;;;;;31.60;38.80;;;;;;5074328;28;19924;-61
2021/07/24 09:56:43;;;;;;;;;;;31.10;39.70;;;;;;5074585;28;20200;-61
2021/07/24 09:59:18;;;;;;;;;;;29.80;41.80;;;;;;5074041;28;19912;-61
2021/07/24 10:02:00;;;;;;;;;;;30.20;41.40;;;;;;5073901;28;19909;-61
2021/07/24 10:04:25;;;;;;;;;;;30.40;40.70;;;;;;5073777;28;19908;-61
2021/07/24 10:06:54;;;;;;;;;;;30.70;40.70;;;;;;5074372;28;20008;-61
2021/07/24 10:09:20;;;;;;;;;;;29.70;40.60;;;;;;5073680;28;19931;-61
2021/07/24 10:11:46;;;;;;;;;;;30.40;42.10;;;;;;5072380;28;20379;-61
2021/07/24 10:14:12;;;;;;;;;;;31.00;37.00;;;;;;5073792;28;19921;-61
2021/07/24 10:16:38;;;;;;;;;;;31.40;36.80;;;;;;5073290;28;19908;-61
2021/07/24 10:19:04;;;;;;;;;;;31.80;36.80;;;;;;5073567;28;19913;-61
2021/07/24 10:21:30;;;;;;;;;;;32.10;35.80;;;;;;5073580;28;20341;-61
2021/07/24 10:23:56;;;;;;;;;;;31.80;34.90;;;;;;5074227;28;19909;-61
2021/07/24 10:26:29;;;;;;;;;;;31.90;35.50;;;;;;5072269;28;20276;-61
2021/07/24 10:28:55;;;;;;;;;;;32.10;34.60;;;;;;5072762;28;19909;-60
2021/07/24 10:31:30;;;;;;;;;;;32.20;35.00;;;;;;5074189;28;19959;-61
2021/07/24 10:33:57;;;;;;;;;;;32.20;35.80;;;;;;5072661;28;19916;-61
2021/07/24 10:36:32;;;;;;;;;;;31.70;36.20;;;;;;5073430;28;19920;-61
2021/07/24 10:38:59;;;;;;;;;;;32.30;36.80;;;;;;5074181;28;19912;-60
2021/07/24 10:41:25;;;;;;;;;;;32.50;36.10;;;;;;5073153;28;19925;-61
2021/07/24 10:44:00;;;;;;;;;;;32.70;34.80;;;;;;5073855;28;20308;-61
2021/07/24 10:46:44;;;;;;;;;;;33.00;35.20;;;;;;5073791;28;19915;-61
2021/07/24 10:49:19;;;;;;;;;;;32.60;34.80;;;;;;5074058;28;19909;-61
2021/07/24 10:52:05;;;;;;;;;;;33.00;35.40;;;;;;5073214;28;19908;-61
2021/07/24 10:54:31;;;;;;;;;;;33.00;35.10;;;;;;5073079;28;19916;-61
2021/07/24 10:56:58;;;;;;;;;;;33.10;35.70;;;;;;5056959;28;20312;-61
2021/07/24 10:59:27;;;;;;;;;;;33.00;35.80;;;;;;5078073;28;19912;-62
2021/07/24 11:01:53;;;;;;;;;;;33.50;34.60;;;;;;5077287;28;19913;-62
2021/07/24 11:04:34;;;;;;;;;;;33.30;35.70;;;;;;5077512;28;19916;-62
2021/07/24 11:07:15;;;;;;;;;;;32.40;35.10;;;;;;5077669;28;20297;-62
2021/07/24 11:09:42;;;;;;;;;;;31.70;37.10;;;;;;5078176;28;19916;-62
2021/07/24 11:12:08;;;;;;;;;;;31.30;37.00;;;;;;5059100;28;20281;-61
2021/07/24 11:14:34;;;;;;;;;;;30.60;39.30;;;;;;5076816;28;19923;-61
2021/07/24 11:17:06;;;;;;;;;;;30.20;40.10;;;;;;5077325;28;19908;-60
2021/07/24 11:19:36;;;;;;;;;;;29.80;41.00;;;;;;5076818;28;19916;-61
2021/07/24 11:22:18;;;;;;;;;;;30.60;41.80;;;;;;5076798;28;19927;-61
2021/07/24 11:24:50;;;;;;;;;;;30.80;40.60;;;;;;5076916;28;20399;-61
2021/07/24 11:27:27;;;;;;;;;;;31.10;39.20;;;;;;5076565;28;19908;-61
2021/07/24 11:29:54;;;;;;;;;;;30.80;39.40;;;;;;5077041;28;20381;-61
2021/07/24 11:32:26;;;;;;;;;;;30.20;41.10;;;;;;5076811;28;19912;-61
2021/07/24 11:35:08;;;;;;;;;;;30.10;41.40;;;;;;5076542;28;19923;-60
2021/07/24 11:37:37;;;;;;;;;;;31.30;39.70;;;;;;5075759;28;19921;-61
2021/07/24 11:40:03;;;;;;;;;;;31.10;38.80;;;;;;5076446;28;20289;-61
2021/07/24 11:42:29;;;;;;;;;;;31.30;40.00;;;;;;5076438;28;19924;-61
2021/07/24 11:44:55;;;;;;;;;;;32.10;38.40;;;;;;5076378;28;19920;-61
2021/07/24 11:47:21;;;;;;;;;;;32.20;37.60;;;;;;5076237;28;19966;-61
2021/07/24 11:49:47;;;;;;;;;;;32.40;37.30;;;;;;5076197;28;19919;-61
2021/07/24 11:52:13;;;;;;;;;;;32.50;36.90;;;;;;5076526;28;19923;-61
2021/07/24 11:54:39;;;;;;;;;;;32.10;36.30;;;;;;5076282;28;19924;-61
2021/07/24 11:57:05;;;;;;;;;;;31.90;37.70;;;;;;5076438;28;20289;-61
2021/07/24 11:59:32;;;;;;;;;;;31.90;37.00;;;;;;5076174;28;19909;-61
2021/07/24 12:01:58;;;;;;;;;;;31.70;37.60;;;;;;5076213;28;19916;-61
2021/07/24 12:04:24;;;;;;;;;;;31.40;38.80;;;;;;5076276;28;20284;-61
2021/07/24 12:06:54;;;;;;;;;;;31.00;37.10;;;;;;5074937;28;19912;-61
2021/07/24 12:09:21;;;;;;;;;;;30.70;37.70;;;;;;5075236;28;19920;-60
2021/07/24 12:11:47;;;;;;;;;;;30.50;38.20;;;;;;5075955;28;19912;-60
2021/07/24 12:14:13;;;;;;;;;;;30.30;38.60;;;;;;5075852;28;19943;-61
2021/07/24 12:16:39;;;;;;;;;;;30.30;39.90;;;;;;5075838;28;20369;-60
2021/07/24 12:19:13;;;;;;;;;;;30.50;39.40;;;;;;5076832;28;19919;-60
2021/07/24 12:21:39;;;;;;;;;;;30.30;38.80;;;;;;5075704;28;20305;-60
2021/07/24 12:24:07;;;;;;;;;;;30.30;39.30;;;;;;5075902;28;20011;-60
2021/07/24 12:26:33;;;;;;;;;;;30.30;38.30;;;;;;5076427;28;19916;-61
2021/07/24 12:29:19;;;;;;;;;;;29.80;39.20;;;;;;5075592;28;20380;-61
2021/07/24 12:31:47;;;;;;;;;;;29.90;40.30;;;;;;5075155;28;20280;-61
2021/07/24 12:34:13;;;;;;;;;;;29.80;40.10;;;;;;5075356;28;19916;-61
2021/07/24 12:36:48;;;;;;;;;;;29.80;40.10;;;;;;5075627;28;19913;-61
2021/07/24 12:39:19;;;;;;;;;;;29.40;40.70;;;;;;5075717;28;20377;-60
2021/07/24 12:41:56;;;;;;;;;;;29.00;41.10;;;;;;5075425;28;19924;-60
2021/07/24 12:44:21;;;;;;;;;;;28.70;41.20;;;;;;5075800;28;19916;-60
2021/07/24 12:46:54;;;;;;;;;;;29.10;42.40;;;;;;5074041;28;19908;-60
2021/07/24 12:49:33;;;;;;;;;;;29.30;40.90;;;;;;5073920;28;20273;-60
2021/07/24 12:51:59;;;;;;;;;;;29.10;41.40;;;;;;5075700;28;19916;-60
2021/07/24 12:54:24;;;;;;;;;;;29.40;41.70;;;;;;5073833;28;19917;-60
2021/07/24 12:56:51;;;;;;;;;;;29.10;41.90;;;;;;5074960;28;19912;-60
2021/07/24 12:59:17;;;;;;;;;;;29.40;41.50;;;;;;5074955;28;19919;-60
2021/07/24 13:01:44;;;;;;;;;;;29.70;42.10;;;;;;5075108;28;19924;-60
2021/07/24 13:04:10;;;;;;;;;;;29.80;40.70;;;;;;5074935;28;19941;-60
2021/07/24 13:06:36;;;;;;;;;;;29.60;40.90;;;;;;5075303;28;19917;-60
2021/07/24 13:09:04;;;;;;;;;;;29.60;41.40;;;;;;5074496;28;19908;-60
2021/07/24 13:11:30;;;;;;;;;;;29.60;41.00;;;;;;5073843;28;19919;-60
2021/07/24 13:13:56;;;;;;;;;;;29.30;41.30;;;;;;5075410;28;19935;-60
2021/07/24 13:16:22;;;;;;;;;;;28.90;41.10;;;;;;5075198;28;19909;-60
2021/07/24 13:18:48;;;;;;;;;;;28.60;41.80;;;;;;5074568;28;19966;-60
2021/07/24 13:21:14;;;;;;;;;;;28.50;42.30;;;;;;5073473;28;19912;-60
2021/07/24 13:23:40;;;;;;;7.43;4.20;;;28.60;41.50;;;;;;5073222;28;20389;-60
2021/07/24 13:28:13;;;;;;;;;;;28.60;39.70;;;;;;5073723;28;20382;-60
2021/07/24 13:28:52;;;;;;;;;;;28.70;39.20;;;;;;5075464;28;19915;-60
2021/07/24 13:31:18;;;;;;;;;;;29.10;40.50;;;;;;5074709;28;19908;-60
2021/07/24 13:33:44;;;;;;;;;;;28.90;40.80;;;;;;5074351;28;20277;-61
2021/07/24 13:36:12;;;;;;;;;;;28.90;39.70;;;;;;5074554;28;19908;-61
2021/07/24 13:38:38;;;;;;;;;;;28.70;40.00;;;;;;5074818;28;19911;-60
2021/07/24 13:41:04;;;;;;;;;;;28.70;40.60;;;;;;5074619;28;19916;-60
2021/07/24 13:43:30;;;;;;;;;;;28.60;41.20;;;;;;5073256;28;20274;-60
2021/07/24 13:45:56;;;;;;;;;;;28.60;41.40;;;;;;5074613;28;19909;-60
2021/07/24 13:48:22;;;;;;;;;;;28.40;41.40;;;;;;5074555;28;19927;-60
2021/07/24 13:50:48;;;;;;;;;;;28.50;41.30;;;;;;5073990;28;19908;-60
2021/07/24 13:53:14;;;;;;;;;;;28.40;41.40;;;;;;5074526;28;19912;-60
2021/07/24 13:55:40;;;;;;;;;;;28.60;42.30;;;;;;5073855;28;19923;-60
2021/07/24 13:58:06;;;;;;;;;;;28.70;41.30;;;;;;5074227;28;19904;-60
2021/07/24 14:00:32;;;;;;;5.25;3.78;;;29.00;41.00;;;;;;5073338;28;20398;-61
2021/07/24 14:02:58;;;;;;;5.32;3.85;;;29.30;41.20;;;;;;5072343;28;20379;-60
2021/07/24 14:05:24;;;;;;;4.30;3.70;;;29.30;39.90;;;;;;5072324;28;20740;-60
2021/07/24 14:07:50;;;;;;;5.63;3.85;;;29.50;40.10;;;;;;5072802;28;20457;-61
2021/07/24 14:10:17;;;;;;;5.90;3.78;;;29.50;40.10;;;;;;5072197;28;20793;-62
2021/07/24 14:12:43;;;;;;;7.70;3.75;;;29.50;39.50;;;;;;5072868;28;20373;-60
2021/07/24 14:15:09;;;;;;;5.90;3.60;;;29.40;39.60;;;;;;5071385;28;20406;-60
2021/07/24 14:17:35;;;;;;;4.93;3.40;;;29.30;42.80;;;;;;5072648;28;20366;-60
2021/07/24 14:20:03;;;;;;;6.70;3.75;;;29.30;43.30;;;;;;5072838;28;20374;-60